sensor_id;sensor_type;location;lat;lon;timestamp;P1;durP1;ratioP1;P2;durP2;ratioP2
24685;SDS011;12804;51.176;4.452;2023-12-29T00:01:15;10.13;;;1.83;;
24685;SDS011;12804;51.176;4.452;2023-12-29T00:03:42;6.93;;;1.08;;
24685;SDS011;12804;51.176;4.452;2023-12-29T00:06:07;8.40;;;1.33;;
24685;SDS011;12804;51.176;4.452;2023-12-29T00:08:33;7.78;;;1.30;;
24685;SDS011;12804;51.176;4.452;2023-12-29T00:10:59;6.32;;;1.17;;
24685;SDS011;12804;51.176;4.452;2023-12-29T00:13:25;7.53;;;1.27;;
24685;SDS011;12804;51.176;4.452;2023-12-29T00:15:54;9.93;;;1.13;;
24685;SDS011;12804;51.176;4.452;2023-12-29T00:18:20;6.25;;;1.55;;
24685;SDS011;12804;51.176;4.452;2023-12-29T00:20:47;8.85;;;1.40;;
24685;SDS011;12804;51.176;4.452;2023-12-29T00:23:13;12.18;;;1.42;;
24685;SDS011;12804;51.176;4.452;2023-12-29T00:25:39;7.88;;;1.10;;
24685;SDS011;12804;51.176;4.452;2023-12-29T00:28:05;10.15;;;1.48;;
24685;SDS011;12804;51.176;4.452;2023-12-29T00:30:31;7.68;;;1.63;;
24685;SDS011;12804;51.176;4.452;2023-12-29T00:32:57;8.18;;;1.10;;
24685;SDS011;12804;51.176;4.452;2023-12-29T00:35:23;7.60;;;1.30;;
24685;SDS011;12804;51.176;4.452;2023-12-29T00:37:52;8.40;;;1.23;;
24685;SDS011;12804;51.176;4.452;2023-12-29T00:40:18;7.28;;;1.40;;
24685;SDS011;12804;51.176;4.452;2023-12-29T00:42:44;5.57;;;1.00;;
24685;SDS011;12804;51.176;4.452;2023-12-29T00:45:09;8.32;;;1.10;;
24685;SDS011;12804;51.176;4.452;2023-12-29T00:47:35;5.68;;;1.25;;
24685;SDS011;12804;51.176;4.452;2023-12-29T00:50:02;10.02;;;1.65;;
24685;SDS011;12804;51.176;4.452;2023-12-29T00:52:28;8.35;;;1.20;;
24685;SDS011;12804;51.176;4.452;2023-12-29T00:54:54;8.30;;;1.30;;
24685;SDS011;12804;51.176;4.452;2023-12-29T00:57:20;9.32;;;1.20;;
24685;SDS011;12804;51.176;4.452;2023-12-29T00:59:46;8.13;;;1.15;;
24685;SDS011;12804;51.176;4.452;2023-12-29T01:02:12;9.73;;;1.45;;
24685;SDS011;12804;51.176;4.452;2023-12-29T01:04:38;11.38;;;1.33;;
24685;SDS011;12804;51.176;4.452;2023-12-29T01:07:05;11.93;;;1.05;;
24685;SDS011;12804;51.176;4.452;2023-12-29T01:09:30;9.30;;;1.33;;
24685;SDS011;12804;51.176;4.452;2023-12-29T01:11:56;8.55;;;1.40;;
24685;SDS011;12804;51.176;4.452;2023-12-29T01:14:22;9.10;;;1.30;;
24685;SDS011;12804;51.176;4.452;2023-12-29T01:16:48;7.35;;;1.10;;
24685;SDS011;12804;51.176;4.452;2023-12-29T01:19:14;8.88;;;1.60;;
24685;SDS011;12804;51.176;4.452;2023-12-29T01:21:40;10.82;;;1.42;;
24685;SDS011;12804;51.176;4.452;2023-12-29T01:24:06;6.30;;;1.10;;
24685;SDS011;12804;51.176;4.452;2023-12-29T01:26:38;6.28;;;1.23;;
24685;SDS011;12804;51.176;4.452;2023-12-29T01:29:05;5.63;;;1.23;;
24685;SDS011;12804;51.176;4.452;2023-12-29T01:31:31;6.65;;;1.15;;
24685;SDS011;12804;51.176;4.452;2023-12-29T01:33:57;6.97;;;1.67;;
24685;SDS011;12804;51.176;4.452;2023-12-29T01:36:23;9.63;;;1.52;;
24685;SDS011;12804;51.176;4.452;2023-12-29T01:38:52;7.28;;;0.98;;
24685;SDS011;12804;51.176;4.452;2023-12-29T01:41:21;10.90;;;1.52;;
24685;SDS011;12804;51.176;4.452;2023-12-29T01:46:26;6.07;;;1.13;;
24685;SDS011;12804;51.176;4.452;2023-12-29T01:48:57;8.55;;;1.70;;
24685;SDS011;12804;51.176;4.452;2023-12-29T01:51:24;5.47;;;1.30;;
24685;SDS011;12804;51.176;4.452;2023-12-29T01:53:52;9.25;;;1.65;;
24685;SDS011;12804;51.176;4.452;2023-12-29T01:56:18;7.88;;;1.25;;
24685;SDS011;12804;51.176;4.452;2023-12-29T01:58:45;6.95;;;1.38;;
24685;SDS011;12804;51.176;4.452;2023-12-29T02:01:16;9.63;;;1.10;;
24685;SDS011;12804;51.176;4.452;2023-12-29T02:03:44;7.20;;;1.30;;
24685;SDS011;12804;51.176;4.452;2023-12-29T02:06:10;6.93;;;1.27;;
24685;SDS011;12804;51.176;4.452;2023-12-29T02:08:37;6.03;;;1.20;;
24685;SDS011;12804;51.176;4.452;2023-12-29T02:11:04;6.97;;;1.00;;
24685;SDS011;12804;51.176;4.452;2023-12-29T02:13:29;7.65;;;1.08;;
24685;SDS011;12804;51.176;4.452;2023-12-29T02:15:58;11.18;;;1.63;;
24685;SDS011;12804;51.176;4.452;2023-12-29T02:18:30;8.25;;;1.20;;
24685;SDS011;12804;51.176;4.452;2023-12-29T02:20:59;13.98;;;1.80;;
24685;SDS011;12804;51.176;4.452;2023-12-29T02:23:28;6.72;;;1.08;;
24685;SDS011;12804;51.176;4.452;2023-12-29T02:25:55;7.25;;;1.33;;
24685;SDS011;12804;51.176;4.452;2023-12-29T02:28:35;10.90;;;1.50;;
24685;SDS011;12804;51.176;4.452;2023-12-29T02:31:16;11.45;;;1.90;;
24685;SDS011;12804;51.176;4.452;2023-12-29T02:33:45;7.78;;;1.30;;
24685;SDS011;12804;51.176;4.452;2023-12-29T02:36:14;8.02;;;1.27;;
24685;SDS011;12804;51.176;4.452;2023-12-29T02:38:42;9.23;;;1.58;;
24685;SDS011;12804;51.176;4.452;2023-12-29T02:41:08;7.05;;;1.15;;
24685;SDS011;12804;51.176;4.452;2023-12-29T02:43:35;12.27;;;1.83;;
24685;SDS011;12804;51.176;4.452;2023-12-29T02:46:00;4.05;;;0.90;;
24685;SDS011;12804;51.176;4.452;2023-12-29T02:48:26;7.55;;;1.70;;
24685;SDS011;12804;51.176;4.452;2023-12-29T02:50:52;7.47;;;1.13;;
24685;SDS011;12804;51.176;4.452;2023-12-29T02:53:18;8.90;;;1.38;;
24685;SDS011;12804;51.176;4.452;2023-12-29T02:55:43;11.70;;;1.42;;
24685;SDS011;12804;51.176;4.452;2023-12-29T02:58:09;3.47;;;1.23;;
24685;SDS011;12804;51.176;4.452;2023-12-29T03:00:35;5.63;;;1.25;;
24685;SDS011;12804;51.176;4.452;2023-12-29T03:03:01;5.63;;;1.10;;
24685;SDS011;12804;51.176;4.452;2023-12-29T03:05:26;4.20;;;1.80;;
24685;SDS011;12804;51.176;4.452;2023-12-29T03:07:52;10.23;;;1.40;;
24685;SDS011;12804;51.176;4.452;2023-12-29T03:10:18;6.80;;;1.02;;
24685;SDS011;12804;51.176;4.452;2023-12-29T03:12:44;7.55;;;1.30;;
24685;SDS011;12804;51.176;4.452;2023-12-29T03:15:10;6.15;;;1.13;;
24685;SDS011;12804;51.176;4.452;2023-12-29T03:17:35;5.82;;;1.15;;
24685;SDS011;12804;51.176;4.452;2023-12-29T03:20:02;7.95;;;1.13;;
24685;SDS011;12804;51.176;4.452;2023-12-29T03:22:30;9.27;;;1.50;;
24685;SDS011;12804;51.176;4.452;2023-12-29T03:24:56;4.70;;;1.20;;
24685;SDS011;12804;51.176;4.452;2023-12-29T03:27:21;9.10;;;1.75;;
24685;SDS011;12804;51.176;4.452;2023-12-29T03:29:47;8.45;;;0.90;;
24685;SDS011;12804;51.176;4.452;2023-12-29T03:32:13;10.50;;;1.33;;
24685;SDS011;12804;51.176;4.452;2023-12-29T03:34:40;8.13;;;1.20;;
24685;SDS011;12804;51.176;4.452;2023-12-29T03:37:06;7.13;;;1.00;;
24685;SDS011;12804;51.176;4.452;2023-12-29T03:39:32;9.65;;;1.33;;
24685;SDS011;12804;51.176;4.452;2023-12-29T03:42:00;7.85;;;1.40;;
24685;SDS011;12804;51.176;4.452;2023-12-29T03:44:27;8.38;;;1.17;;
24685;SDS011;12804;51.176;4.452;2023-12-29T03:46:52;7.43;;;1.02;;
24685;SDS011;12804;51.176;4.452;2023-12-29T03:49:18;7.45;;;1.40;;
24685;SDS011;12804;51.176;4.452;2023-12-29T03:51:47;7.22;;;1.50;;
24685;SDS011;12804;51.176;4.452;2023-12-29T03:54:14;10.57;;;1.60;;
24685;SDS011;12804;51.176;4.452;2023-12-29T03:56:40;10.50;;;1.63;;
24685;SDS011;12804;51.176;4.452;2023-12-29T03:59:06;9.43;;;1.27;;
24685;SDS011;12804;51.176;4.452;2023-12-29T04:01:33;8.23;;;1.33;;
24685;SDS011;12804;51.176;4.452;2023-12-29T04:03:59;6.20;;;1.20;;
24685;SDS011;12804;51.176;4.452;2023-12-29T04:06:24;8.10;;;1.58;;
24685;SDS011;12804;51.176;4.452;2023-12-29T04:08:50;12.10;;;1.27;;
24685;SDS011;12804;51.176;4.452;2023-12-29T04:11:16;9.40;;;1.70;;
24685;SDS011;12804;51.176;4.452;2023-12-29T04:13:42;8.20;;;1.30;;
24685;SDS011;12804;51.176;4.452;2023-12-29T04:16:08;8.60;;;1.67;;
24685;SDS011;12804;51.176;4.452;2023-12-29T04:18:33;8.35;;;1.20;;
24685;SDS011;12804;51.176;4.452;2023-12-29T04:21:00;7.30;;;1.58;;
24685;SDS011;12804;51.176;4.452;2023-12-29T04:23:25;12.18;;;1.30;;
24685;SDS011;12804;51.176;4.452;2023-12-29T04:25:51;10.25;;;1.67;;
24685;SDS011;12804;51.176;4.452;2023-12-29T04:28:17;5.80;;;1.23;;
24685;SDS011;12804;51.176;4.452;2023-12-29T04:30:43;11.52;;;1.63;;
24685;SDS011;12804;51.176;4.452;2023-12-29T04:33:09;11.27;;;1.65;;
24685;SDS011;12804;51.176;4.452;2023-12-29T04:35:34;8.85;;;1.40;;
24685;SDS011;12804;51.176;4.452;2023-12-29T04:38:01;10.18;;;1.55;;
24685;SDS011;12804;51.176;4.452;2023-12-29T04:40:27;9.35;;;1.70;;
24685;SDS011;12804;51.176;4.452;2023-12-29T04:42:53;10.52;;;1.30;;
24685;SDS011;12804;51.176;4.452;2023-12-29T04:45:18;11.05;;;1.65;;
24685;SDS011;12804;51.176;4.452;2023-12-29T04:47:44;8.45;;;1.45;;
24685;SDS011;12804;51.176;4.452;2023-12-29T04:50:10;8.80;;;1.27;;
24685;SDS011;12804;51.176;4.452;2023-12-29T04:52:35;6.18;;;1.02;;
24685;SDS011;12804;51.176;4.452;2023-12-29T04:55:01;8.80;;;1.40;;
24685;SDS011;12804;51.176;4.452;2023-12-29T04:57:27;6.88;;;1.02;;
24685;SDS011;12804;51.176;4.452;2023-12-29T04:59:53;12.20;;;1.55;;
24685;SDS011;12804;51.176;4.452;2023-12-29T05:02:19;10.82;;;1.50;;
24685;SDS011;12804;51.176;4.452;2023-12-29T05:04:45;9.38;;;1.35;;
24685;SDS011;12804;51.176;4.452;2023-12-29T05:07:11;5.72;;;1.00;;
24685;SDS011;12804;51.176;4.452;2023-12-29T05:09:37;6.70;;;1.27;;
24685;SDS011;12804;51.176;4.452;2023-12-29T05:12:03;4.68;;;1.13;;
24685;SDS011;12804;51.176;4.452;2023-12-29T05:14:29;6.55;;;1.08;;
24685;SDS011;12804;51.176;4.452;2023-12-29T05:16:55;7.38;;;1.20;;
24685;SDS011;12804;51.176;4.452;2023-12-29T05:19:21;7.63;;;1.38;;
24685;SDS011;12804;51.176;4.452;2023-12-29T05:21:47;11.30;;;1.23;;
24685;SDS011;12804;51.176;4.452;2023-12-29T05:24:16;6.10;;;1.35;;
24685;SDS011;12804;51.176;4.452;2023-12-29T05:26:41;8.63;;;1.17;;
24685;SDS011;12804;51.176;4.452;2023-12-29T05:29:07;8.90;;;1.30;;
24685;SDS011;12804;51.176;4.452;2023-12-29T05:31:33;7.25;;;1.00;;
24685;SDS011;12804;51.176;4.452;2023-12-29T05:33:59;9.40;;;1.50;;
24685;SDS011;12804;51.176;4.452;2023-12-29T05:36:24;9.75;;;1.40;;
24685;SDS011;12804;51.176;4.452;2023-12-29T05:38:50;4.15;;;1.05;;
24685;SDS011;12804;51.176;4.452;2023-12-29T05:41:16;8.15;;;1.00;;
24685;SDS011;12804;51.176;4.452;2023-12-29T05:43:44;4.13;;;1.00;;
24685;SDS011;12804;51.176;4.452;2023-12-29T05:46:10;9.93;;;1.73;;
24685;SDS011;12804;51.176;4.452;2023-12-29T05:48:39;9.43;;;1.20;;
24685;SDS011;12804;51.176;4.452;2023-12-29T05:53:34;8.27;;;1.00;;
24685;SDS011;12804;51.176;4.452;2023-12-29T05:56:00;11.30;;;1.40;;
24685;SDS011;12804;51.176;4.452;2023-12-29T05:58:26;9.90;;;1.52;;
24685;SDS011;12804;51.176;4.452;2023-12-29T06:00:52;10.05;;;1.40;;
24685;SDS011;12804;51.176;4.452;2023-12-29T06:03:19;9.38;;;1.20;;
24685;SDS011;12804;51.176;4.452;2023-12-29T06:05:45;9.57;;;1.75;;
24685;SDS011;12804;51.176;4.452;2023-12-29T06:08:11;9.00;;;1.48;;
24685;SDS011;12804;51.176;4.452;2023-12-29T06:10:37;5.30;;;1.13;;
24685;SDS011;12804;51.176;4.452;2023-12-29T06:13:02;10.75;;;1.60;;
24685;SDS011;12804;51.176;4.452;2023-12-29T06:15:28;7.13;;;1.50;;
24685;SDS011;12804;51.176;4.452;2023-12-29T06:17:54;8.80;;;1.45;;
24685;SDS011;12804;51.176;4.452;2023-12-29T06:20:20;11.77;;;2.20;;
24685;SDS011;12804;51.176;4.452;2023-12-29T06:22:46;5.18;;;1.17;;
24685;SDS011;12804;51.176;4.452;2023-12-29T06:25:12;7.75;;;1.85;;
24685;SDS011;12804;51.176;4.452;2023-12-29T06:27:38;7.45;;;1.50;;
24685;SDS011;12804;51.176;4.452;2023-12-29T06:30:05;10.40;;;1.60;;
24685;SDS011;12804;51.176;4.452;2023-12-29T06:32:38;10.98;;;1.90;;
24685;SDS011;12804;51.176;4.452;2023-12-29T06:35:05;8.70;;;1.23;;
24685;SDS011;12804;51.176;4.452;2023-12-29T06:37:31;9.63;;;1.30;;
24685;SDS011;12804;51.176;4.452;2023-12-29T06:39:57;6.03;;;1.35;;
24685;SDS011;12804;51.176;4.452;2023-12-29T06:42:23;5.43;;;1.35;;
24685;SDS011;12804;51.176;4.452;2023-12-29T06:44:49;8.52;;;1.33;;
24685;SDS011;12804;51.176;4.452;2023-12-29T06:47:15;6.85;;;1.30;;
24685;SDS011;12804;51.176;4.452;2023-12-29T06:49:41;9.98;;;1.55;;
24685;SDS011;12804;51.176;4.452;2023-12-29T06:52:07;7.07;;;1.10;;
24685;SDS011;12804;51.176;4.452;2023-12-29T06:54:33;7.70;;;1.00;;
24685;SDS011;12804;51.176;4.452;2023-12-29T06:56:59;5.65;;;1.23;;
24685;SDS011;12804;51.176;4.452;2023-12-29T06:59:25;6.50;;;1.13;;
24685;SDS011;12804;51.176;4.452;2023-12-29T07:01:51;5.10;;;1.02;;
24685;SDS011;12804;51.176;4.452;2023-12-29T07:04:17;8.07;;;0.95;;
24685;SDS011;12804;51.176;4.452;2023-12-29T07:06:43;5.70;;;1.05;;
24685;SDS011;12804;51.176;4.452;2023-12-29T07:09:08;6.35;;;0.88;;
24685;SDS011;12804;51.176;4.452;2023-12-29T07:11:35;4.63;;;0.90;;
24685;SDS011;12804;51.176;4.452;2023-12-29T07:14:01;7.53;;;0.98;;
24685;SDS011;12804;51.176;4.452;2023-12-29T07:16:27;9.82;;;1.20;;
24685;SDS011;12804;51.176;4.452;2023-12-29T07:18:53;6.82;;;1.40;;
24685;SDS011;12804;51.176;4.452;2023-12-29T07:21:19;5.18;;;0.80;;
24685;SDS011;12804;51.176;4.452;2023-12-29T07:23:45;6.00;;;1.02;;
24685;SDS011;12804;51.176;4.452;2023-12-29T07:26:11;8.38;;;1.05;;
24685;SDS011;12804;51.176;4.452;2023-12-29T07:28:37;5.22;;;0.80;;
24685;SDS011;12804;51.176;4.452;2023-12-29T07:31:02;3.38;;;0.75;;
24685;SDS011;12804;51.176;4.452;2023-12-29T07:33:29;5.43;;;0.90;;
24685;SDS011;12804;51.176;4.452;2023-12-29T07:35:55;4.78;;;0.70;;
24685;SDS011;12804;51.176;4.452;2023-12-29T07:38:21;3.45;;;0.93;;
24685;SDS011;12804;51.176;4.452;2023-12-29T07:40:47;4.47;;;0.90;;
24685;SDS011;12804;51.176;4.452;2023-12-29T07:43:13;2.65;;;0.80;;
24685;SDS011;12804;51.176;4.452;2023-12-29T07:45:39;6.55;;;0.90;;
24685;SDS011;12804;51.176;4.452;2023-12-29T07:48:05;5.40;;;0.68;;
24685;SDS011;12804;51.176;4.452;2023-12-29T07:50:31;4.07;;;0.80;;
24685;SDS011;12804;51.176;4.452;2023-12-29T07:52:58;4.75;;;0.68;;
24685;SDS011;12804;51.176;4.452;2023-12-29T07:55:28;2.90;;;0.63;;
24685;SDS011;12804;51.176;4.452;2023-12-29T07:57:54;4.47;;;1.00;;
24685;SDS011;12804;51.176;4.452;2023-12-29T08:00:20;2.65;;;0.85;;
24685;SDS011;12804;51.176;4.452;2023-12-29T08:02:45;4.85;;;0.70;;
24685;SDS011;12804;51.176;4.452;2023-12-29T08:05:11;2.67;;;0.70;;
24685;SDS011;12804;51.176;4.452;2023-12-29T08:07:37;2.08;;;0.60;;
24685;SDS011;12804;51.176;4.452;2023-12-29T08:10:04;4.40;;;0.93;;
24685;SDS011;12804;51.176;4.452;2023-12-29T08:12:30;2.67;;;0.63;;
24685;SDS011;12804;51.176;4.452;2023-12-29T08:14:58;2.17;;;0.90;;
24685;SDS011;12804;51.176;4.452;2023-12-29T08:17:24;2.22;;;0.38;;
24685;SDS011;12804;51.176;4.452;2023-12-29T08:19:51;3.03;;;0.80;;
24685;SDS011;12804;51.176;4.452;2023-12-29T08:22:16;1.45;;;0.57;;
24685;SDS011;12804;51.176;4.452;2023-12-29T08:24:44;3.22;;;0.50;;
24685;SDS011;12804;51.176;4.452;2023-12-29T08:27:11;3.15;;;0.60;;
24685;SDS011;12804;51.176;4.452;2023-12-29T08:29:38;1.83;;;0.60;;
24685;SDS011;12804;51.176;4.452;2023-12-29T08:32:04;2.95;;;0.80;;
24685;SDS011;12804;51.176;4.452;2023-12-29T08:34:30;3.40;;;0.90;;
24685;SDS011;12804;51.176;4.452;2023-12-29T08:36:56;4.50;;;0.80;;
24685;SDS011;12804;51.176;4.452;2023-12-29T08:39:22;4.70;;;0.88;;
24685;SDS011;12804;51.176;4.452;2023-12-29T08:41:49;3.50;;;0.88;;
24685;SDS011;12804;51.176;4.452;2023-12-29T08:44:15;1.35;;;0.65;;
24685;SDS011;12804;51.176;4.452;2023-12-29T08:46:41;3.47;;;1.00;;
24685;SDS011;12804;51.176;4.452;2023-12-29T08:49:07;1.45;;;0.93;;
24685;SDS011;12804;51.176;4.452;2023-12-29T08:51:33;3.13;;;1.10;;
24685;SDS011;12804;51.176;4.452;2023-12-29T08:53:59;3.10;;;1.08;;
24685;SDS011;12804;51.176;4.452;2023-12-29T08:56:25;3.50;;;1.20;;
24685;SDS011;12804;51.176;4.452;2023-12-29T08:58:51;3.97;;;0.98;;
24685;SDS011;12804;51.176;4.452;2023-12-29T09:01:17;3.72;;;0.73;;
24685;SDS011;12804;51.176;4.452;2023-12-29T09:03:44;1.80;;;0.60;;
24685;SDS011;12804;51.176;4.452;2023-12-29T09:06:10;0.95;;;0.45;;
24685;SDS011;12804;51.176;4.452;2023-12-29T09:08:36;1.65;;;0.60;;
24685;SDS011;12804;51.176;4.452;2023-12-29T09:11:02;0.77;;;0.40;;
24685;SDS011;12804;51.176;4.452;2023-12-29T09:13:28;2.90;;;0.60;;
24685;SDS011;12804;51.176;4.452;2023-12-29T09:15:54;1.83;;;0.40;;
24685;SDS011;12804;51.176;4.452;2023-12-29T09:18:20;1.60;;;0.32;;
24685;SDS011;12804;51.176;4.452;2023-12-29T09:20:46;1.13;;;0.40;;
24685;SDS011;12804;51.176;4.452;2023-12-29T09:23:13;1.27;;;0.30;;
24685;SDS011;12804;51.176;4.452;2023-12-29T09:25:39;1.35;;;0.40;;
24685;SDS011;12804;51.176;4.452;2023-12-29T09:28:06;2.75;;;0.60;;
24685;SDS011;12804;51.176;4.452;2023-12-29T09:30:32;2.40;;;0.60;;
24685;SDS011;12804;51.176;4.452;2023-12-29T09:32:57;2.58;;;0.80;;
24685;SDS011;12804;51.176;4.452;2023-12-29T09:35:23;4.80;;;0.80;;
24685;SDS011;12804;51.176;4.452;2023-12-29T09:37:49;2.25;;;0.80;;
24685;SDS011;12804;51.176;4.452;2023-12-29T09:40:15;5.90;;;1.25;;
24685;SDS011;12804;51.176;4.452;2023-12-29T09:42:44;2.30;;;0.85;;
24685;SDS011;12804;51.176;4.452;2023-12-29T09:45:11;4.80;;;1.30;;
24685;SDS011;12804;51.176;4.452;2023-12-29T09:47:41;6.60;;;1.50;;
24685;SDS011;12804;51.176;4.452;2023-12-29T09:50:10;3.88;;;1.20;;
24685;SDS011;12804;51.176;4.452;2023-12-29T09:52:39;4.10;;;1.10;;
24685;SDS011;12804;51.176;4.452;2023-12-29T09:55:09;3.60;;;1.00;;
24685;SDS011;12804;51.176;4.452;2023-12-29T09:57:36;3.40;;;0.90;;
24685;SDS011;12804;51.176;4.452;2023-12-29T10:00:03;4.68;;;0.95;;
24685;SDS011;12804;51.176;4.452;2023-12-29T10:02:36;4.13;;;0.90;;
24685;SDS011;12804;51.176;4.452;2023-12-29T10:05:02;3.53;;;0.90;;
24685;SDS011;12804;51.176;4.452;2023-12-29T10:07:30;5.90;;;0.75;;
24685;SDS011;12804;51.176;4.452;2023-12-29T10:10:00;1.83;;;0.77;;
24685;SDS011;12804;51.176;4.452;2023-12-29T10:12:28;4.18;;;0.90;;
24685;SDS011;12804;51.176;4.452;2023-12-29T10:17:31;4.30;;;0.63;;
24685;SDS011;12804;51.176;4.452;2023-12-29T10:23:32;3.85;;;0.40;;
24685;SDS011;12804;51.176;4.452;2023-12-29T10:26:03;1.80;;;0.50;;
24685;SDS011;12804;51.176;4.452;2023-12-29T10:28:31;1.63;;;0.32;;
24685;SDS011;12804;51.176;4.452;2023-12-29T10:30:57;1.55;;;0.65;;
24685;SDS011;12804;51.176;4.452;2023-12-29T10:33:23;2.17;;;0.30;;
24685;SDS011;12804;51.176;4.452;2023-12-29T10:35:56;0.77;;;0.30;;
24685;SDS011;12804;51.176;4.452;2023-12-29T10:38:26;1.42;;;0.30;;
24685;SDS011;12804;51.176;4.452;2023-12-29T10:40:52;2.13;;;0.38;;
24685;SDS011;12804;51.176;4.452;2023-12-29T10:43:21;1.33;;;0.22;;
24685;SDS011;12804;51.176;4.452;2023-12-29T10:45:48;2.03;;;0.30;;
24685;SDS011;12804;51.176;4.452;2023-12-29T10:48:21;1.40;;;0.40;;
24685;SDS011;12804;51.176;4.452;2023-12-29T10:50:49;0.93;;;0.30;;
24685;SDS011;12804;51.176;4.452;2023-12-29T10:53:15;3.97;;;0.43;;
24685;SDS011;12804;51.176;4.452;2023-12-29T10:55:43;2.00;;;0.50;;
24685;SDS011;12804;51.176;4.452;2023-12-29T10:58:09;1.30;;;0.60;;
24685;SDS011;12804;51.176;4.452;2023-12-29T11:00:35;1.83;;;0.80;;
24685;SDS011;12804;51.176;4.452;2023-12-29T11:03:01;1.50;;;0.60;;
24685;SDS011;12804;51.176;4.452;2023-12-29T11:05:29;1.20;;;0.68;;
24685;SDS011;12804;51.176;4.452;2023-12-29T11:07:54;3.22;;;0.80;;
24685;SDS011;12804;51.176;4.452;2023-12-29T11:10:21;4.93;;;1.00;;
24685;SDS011;12804;51.176;4.452;2023-12-29T11:12:47;6.68;;;1.20;;
24685;SDS011;12804;51.176;4.452;2023-12-29T11:15:14;3.90;;;1.20;;
24685;SDS011;12804;51.176;4.452;2023-12-29T11:17:43;5.85;;;1.38;;
24685;SDS011;12804;51.176;4.452;2023-12-29T11:20:15;3.40;;;1.20;;
24685;SDS011;12804;51.176;4.452;2023-12-29T11:22:42;3.97;;;1.50;;
24685;SDS011;12804;51.176;4.452;2023-12-29T11:25:10;5.68;;;1.25;;
24685;SDS011;12804;51.176;4.452;2023-12-29T11:27:37;4.97;;;1.67;;
24685;SDS011;12804;51.176;4.452;2023-12-29T11:30:03;5.78;;;1.27;;
24685;SDS011;12804;51.176;4.452;2023-12-29T11:35:42;8.30;;;1.98;;
24685;SDS011;12804;51.176;4.452;2023-12-29T11:41:05;5.40;;;1.70;;
24685;SDS011;12804;51.176;4.452;2023-12-29T11:43:38;6.63;;;1.60;;
24685;SDS011;12804;51.176;4.452;2023-12-29T11:46:04;7.03;;;1.90;;
24685;SDS011;12804;51.176;4.452;2023-12-29T11:51:32;5.60;;;1.70;;
24685;SDS011;12804;51.176;4.452;2023-12-29T11:54:04;8.50;;;1.95;;
24685;SDS011;12804;51.176;4.452;2023-12-29T11:56:31;8.23;;;1.80;;
24685;SDS011;12804;51.176;4.452;2023-12-29T12:01:57;6.40;;;1.67;;
24685;SDS011;12804;51.176;4.452;2023-12-29T12:07:12;8.38;;;1.90;;
24685;SDS011;12804;51.176;4.452;2023-12-29T12:09:40;5.15;;;1.50;;
24685;SDS011;12804;51.176;4.452;2023-12-29T12:12:06;4.78;;;1.70;;
24685;SDS011;12804;51.176;4.452;2023-12-29T12:14:45;7.10;;;1.70;;
24685;SDS011;12804;51.176;4.452;2023-12-29T12:17:28;4.10;;;1.50;;
24685;SDS011;12804;51.176;4.452;2023-12-29T12:19:56;2.78;;;1.55;;
24685;SDS011;12804;51.176;4.452;2023-12-29T12:22:23;5.80;;;1.90;;
24685;SDS011;12804;51.176;4.452;2023-12-29T12:24:59;5.25;;;1.48;;
24685;SDS011;12804;51.176;4.452;2023-12-29T12:27:26;5.25;;;1.60;;
24685;SDS011;12804;51.176;4.452;2023-12-29T12:29:53;6.72;;;1.88;;
24685;SDS011;12804;51.176;4.452;2023-12-29T12:32:28;3.73;;;2.23;;
24685;SDS011;12804;51.176;4.452;2023-12-29T12:34:55;4.43;;;1.20;;
24685;SDS011;12804;51.176;4.452;2023-12-29T12:37:28;2.00;;;0.90;;
24685;SDS011;12804;51.176;4.452;2023-12-29T12:39:55;3.65;;;0.82;;
24685;SDS011;12804;51.176;4.452;2023-12-29T12:42:21;4.47;;;1.00;;
24685;SDS011;12804;51.176;4.452;2023-12-29T12:44:54;3.08;;;0.90;;
24685;SDS011;12804;51.176;4.452;2023-12-29T12:48:00;2.30;;;0.90;;
24685;SDS011;12804;51.176;4.452;2023-12-29T12:50:17;3.53;;;0.80;;
24685;SDS011;12804;51.176;4.452;2023-12-29T12:52:44;2.65;;;0.75;;
24685;SDS011;12804;51.176;4.452;2023-12-29T12:55:10;1.58;;;0.60;;
24685;SDS011;12804;51.176;4.452;2023-12-29T12:57:38;3.38;;;0.88;;
24685;SDS011;12804;51.176;4.452;2023-12-29T13:00:04;2.40;;;0.60;;
24685;SDS011;12804;51.176;4.452;2023-12-29T13:02:31;2.42;;;0.43;;
24685;SDS011;12804;51.176;4.452;2023-12-29T13:04:58;1.52;;;0.50;;
24685;SDS011;12804;51.176;4.452;2023-12-29T13:07:24;1.75;;;0.60;;
24685;SDS011;12804;51.176;4.452;2023-12-29T13:09:50;2.50;;;0.75;;
24685;SDS011;12804;51.176;4.452;2023-12-29T13:12:18;2.67;;;0.60;;
24685;SDS011;12804;51.176;4.452;2023-12-29T13:14:44;2.00;;;0.52;;
24685;SDS011;12804;51.176;4.452;2023-12-29T13:17:11;0.60;;;0.38;;
24685;SDS011;12804;51.176;4.452;2023-12-29T13:19:40;0.88;;;0.40;;
24685;SDS011;12804;51.176;4.452;2023-12-29T13:22:07;1.00;;;0.45;;
24685;SDS011;12804;51.176;4.452;2023-12-29T13:24:34;1.95;;;0.63;;
24685;SDS011;12804;51.176;4.452;2023-12-29T13:27:05;1.65;;;0.50;;
24685;SDS011;12804;51.176;4.452;2023-12-29T13:29:33;1.20;;;0.45;;
24685;SDS011;12804;51.176;4.452;2023-12-29T13:32:03;2.88;;;0.80;;
24685;SDS011;12804;51.176;4.452;2023-12-29T13:38:05;1.17;;;0.50;;
24685;SDS011;12804;51.176;4.452;2023-12-29T13:40:17;1.60;;;0.52;;
24685;SDS011;12804;51.176;4.452;2023-12-29T13:42:48;1.48;;;0.63;;
24685;SDS011;12804;51.176;4.452;2023-12-29T13:45:16;1.25;;;0.57;;
24685;SDS011;12804;51.176;4.452;2023-12-29T13:47:43;1.83;;;0.60;;
24685;SDS011;12804;51.176;4.452;2023-12-29T13:50:11;1.95;;;0.68;;
24685;SDS011;12804;51.176;4.452;2023-12-29T13:52:37;3.67;;;0.70;;
24685;SDS011;12804;51.176;4.452;2023-12-29T13:55:03;2.13;;;0.63;;
24685;SDS011;12804;51.176;4.452;2023-12-29T13:57:31;3.47;;;0.80;;
24685;SDS011;12804;51.176;4.452;2023-12-29T14:03:01;2.20;;;0.73;;
24685;SDS011;12804;51.176;4.452;2023-12-29T14:05:47;2.05;;;0.90;;
24685;SDS011;12804;51.176;4.452;2023-12-29T14:08:25;2.72;;;0.80;;
24685;SDS011;12804;51.176;4.452;2023-12-29T14:10:59;2.45;;;0.70;;
24685;SDS011;12804;51.176;4.452;2023-12-29T14:13:24;3.30;;;0.77;;
24685;SDS011;12804;51.176;4.452;2023-12-29T14:15:51;1.23;;;0.82;;
24685;SDS011;12804;51.176;4.452;2023-12-29T14:20:58;2.45;;;0.93;;
24685;SDS011;12804;51.176;4.452;2023-12-29T14:23:24;2.53;;;0.95;;
24685;SDS011;12804;51.176;4.452;2023-12-29T14:25:50;3.55;;;1.05;;
24685;SDS011;12804;51.176;4.452;2023-12-29T14:28:20;1.48;;;0.88;;
24685;SDS011;12804;51.176;4.452;2023-12-29T14:30:47;2.45;;;0.70;;
24685;SDS011;12804;51.176;4.452;2023-12-29T14:33:13;1.42;;;0.70;;
24685;SDS011;12804;51.176;4.452;2023-12-29T14:35:39;1.92;;;0.70;;
24685;SDS011;12804;51.176;4.452;2023-12-29T14:38:05;2.88;;;0.80;;
24685;SDS011;12804;51.176;4.452;2023-12-29T14:40:31;3.45;;;0.80;;
24685;SDS011;12804;51.176;4.452;2023-12-29T14:43:00;2.65;;;0.60;;
24685;SDS011;12804;51.176;4.452;2023-12-29T14:45:26;2.08;;;0.70;;
24685;SDS011;12804;51.176;4.452;2023-12-29T14:47:55;1.35;;;0.57;;
24685;SDS011;12804;51.176;4.452;2023-12-29T14:50:24;1.50;;;0.70;;
24685;SDS011;12804;51.176;4.452;2023-12-29T14:52:49;1.88;;;0.65;;
24685;SDS011;12804;51.176;4.452;2023-12-29T14:55:15;1.10;;;0.60;;
24685;SDS011;12804;51.176;4.452;2023-12-29T14:57:41;2.72;;;0.68;;
24685;SDS011;12804;51.176;4.452;2023-12-29T15:00:09;1.40;;;0.60;;
24685;SDS011;12804;51.176;4.452;2023-12-29T15:02:36;2.47;;;0.70;;
24685;SDS011;12804;51.176;4.452;2023-12-29T15:05:02;2.95;;;0.80;;
24685;SDS011;12804;51.176;4.452;2023-12-29T15:07:28;2.13;;;0.80;;
24685;SDS011;12804;51.176;4.452;2023-12-29T15:09:56;3.15;;;0.80;;
24685;SDS011;12804;51.176;4.452;2023-12-29T15:12:22;3.40;;;0.80;;
24685;SDS011;12804;51.176;4.452;2023-12-29T15:14:48;2.70;;;0.70;;
24685;SDS011;12804;51.176;4.452;2023-12-29T15:17:14;1.35;;;0.68;;
24685;SDS011;12804;51.176;4.452;2023-12-29T15:19:40;1.73;;;0.75;;